createdAt,value
2023-05-04T00:00:22.497Z,6.00
2023-05-04T00:02:50.479Z,5.98
2023-05-04T00:05:17.291Z,5.90
2023-05-04T00:07:44.098Z,5.88
2023-05-04T00:10:10.872Z,5.89
2023-05-04T00:12:37.750Z,5.77
2023-05-04T00:15:04.877Z,5.76
2023-05-04T00:17:31.929Z,5.70
2023-05-04T00:19:58.468Z,5.68
2023-05-04T00:22:27.672Z,5.69
2023-05-04T00:24:54.634Z,5.63
2023-05-04T00:27:21.357Z,5.56
2023-05-04T00:29:47.837Z,5.50
2023-05-04T00:32:14.520Z,5.48
2023-05-04T00:34:41.079Z,5.46
2023-05-04T00:37:07.522Z,5.38
2023-05-04T00:39:34.254Z,5.39
2023-05-04T00:42:01.093Z,5.35
2023-05-04T00:44:27.842Z,5.30
2023-05-04T00:46:54.942Z,5.28
2023-05-04T00:49:22.028Z,5.23
2023-05-04T00:51:50.364Z,5.21
2023-05-04T00:54:17.634Z,5.21
2023-05-04T00:56:44.478Z,5.11
2023-05-04T00:59:11.706Z,5.09
2023-05-04T01:01:38.352Z,5.12
2023-05-04T01:04:05.553Z,5.06
2023-05-04T01:07:09.198Z,5.06
2023-05-04T01:09:52.786Z,5.02
2023-05-04T01:12:29.995Z,4.99
2023-05-04T01:14:57.264Z,4.95
2023-05-04T01:17:23.832Z,4.93
2023-05-04T01:19:50.557Z,4.96
2023-05-04T01:22:17.106Z,4.92
2023-05-04T01:24:43.752Z,4.89
2023-05-04T01:27:24.363Z,4.86
2023-05-04T01:30:26.005Z,4.90
2023-05-04T01:32:53.539Z,4.80
2023-05-04T01:35:20.228Z,4.82
2023-05-04T01:37:46.750Z,4.79
2023-05-04T01:40:13.289Z,4.75
2023-05-04T01:42:40.134Z,4.73
2023-05-04T01:45:07.471Z,4.72
2023-05-04T01:47:34.192Z,4.74
2023-05-04T01:50:01.051Z,4.69
2023-05-04T01:52:27.599Z,4.68
2023-05-04T01:54:54.442Z,4.66
2023-05-04T01:57:21.456Z,4.70
2023-05-04T01:59:47.969Z,4.67
2023-05-04T02:02:14.786Z,4.63
2023-05-04T02:04:41.587Z,4.65
2023-05-04T02:07:08.353Z,4.63
2023-05-04T02:09:34.884Z,4.58
2023-05-04T02:12:01.725Z,4.56
2023-05-04T02:14:28.323Z,4.54
2023-05-04T02:16:55.146Z,4.53
2023-05-04T02:19:22.132Z,4.52
2023-05-04T02:21:48.880Z,4.44
2023-05-04T02:24:15.623Z,4.36
2023-05-04T02:26:42.069Z,4.24
2023-05-04T02:29:08.802Z,4.20
2023-05-04T02:31:35.639Z,4.16
2023-05-04T02:34:02.131Z,4.15
2023-05-04T02:36:30.770Z,4.10
2023-05-04T02:38:57.239Z,4.11
2023-05-04T02:41:23.802Z,4.07
2023-05-04T02:43:50.237Z,4.01
2023-05-04T02:46:16.780Z,3.97
2023-05-04T02:48:43.866Z,3.94
2023-05-04T02:51:10.479Z,3.97
2023-05-04T02:53:37.285Z,4.00
2023-05-04T02:56:04.035Z,3.96
2023-05-04T02:58:30.511Z,3.90
2023-05-04T03:00:57.099Z,3.91
2023-05-04T03:03:23.638Z,3.88
2023-05-04T03:05:50.141Z,3.84
2023-05-04T03:08:16.885Z,3.80
2023-05-04T03:10:44.130Z,3.76
2023-05-04T03:13:10.913Z,3.75
2023-05-04T03:15:38.952Z,3.72
2023-05-04T03:18:05.946Z,3.69
2023-05-04T03:20:32.437Z,3.68
2023-05-04T03:22:58.854Z,3.66
2023-05-04T03:25:29.230Z,3.72
2023-05-04T03:27:55.844Z,3.67
2023-05-04T03:30:22.454Z,3.63
2023-05-04T03:32:49.401Z,3.59
2023-05-04T03:35:23.296Z,3.54
2023-05-04T03:37:51.238Z,3.53
2023-05-04T03:40:17.706Z,3.46
2023-05-04T03:42:44.320Z,3.45
2023-05-04T03:45:11.145Z,3.46
2023-05-04T03:47:37.947Z,3.46
2023-05-04T03:50:05.267Z,3.40
2023-05-04T03:52:32.192Z,3.35
2023-05-04T03:54:58.631Z,3.34
2023-05-04T03:57:25.189Z,3.33
2023-05-04T03:59:51.949Z,3.34
2023-05-04T04:02:19.236Z,3.34
2023-05-04T04:04:45.618Z,3.36
2023-05-04T04:07:12.196Z,3.38
2023-05-04T04:09:38.841Z,3.42
2023-05-04T04:12:05.470Z,3.48
2023-05-04T04:14:32.161Z,3.57
2023-05-04T04:16:58.863Z,3.63
2023-05-04T04:19:25.494Z,3.68
2023-05-04T04:21:52.593Z,3.76
2023-05-04T04:24:23.412Z,3.80
2023-05-04T04:26:50.928Z,3.91
2023-05-04T04:29:17.480Z,3.94
2023-05-04T04:31:43.968Z,4.00
2023-05-04T04:34:10.542Z,4.07
2023-05-04T04:36:37.183Z,4.11
2023-05-04T04:39:04.075Z,4.22
2023-05-04T04:41:30.543Z,4.25
2023-05-04T04:43:57.402Z,4.29
2023-05-04T04:46:23.920Z,4.35
2023-05-04T04:48:50.446Z,4.49
2023-05-04T04:51:16.858Z,4.58
2023-05-04T04:53:43.485Z,4.62
2023-05-04T04:56:10.288Z,4.69
2023-05-04T04:58:36.832Z,4.79
2023-05-04T05:01:04.346Z,4.91
2023-05-04T05:03:31.904Z,5.03
2023-05-04T05:06:00.523Z,5.18
2023-05-04T05:08:27.050Z,5.31
2023-05-04T05:10:53.753Z,5.41
2023-05-04T05:13:20.555Z,5.44
2023-05-04T05:15:47.007Z,5.51
2023-05-04T05:18:13.459Z,5.62
2023-05-04T05:20:39.881Z,5.67
2023-05-04T05:23:06.579Z,5.82
2023-05-04T05:25:33.351Z,5.89
2023-05-04T05:28:02.295Z,6.03
2023-05-04T05:30:28.800Z,6.17
2023-05-04T05:32:55.448Z,6.27
2023-05-04T05:35:22.196Z,6.40
2023-05-04T05:37:49.142Z,6.49
2023-05-04T05:40:15.686Z,6.61
2023-05-04T05:42:42.192Z,6.73
2023-05-04T05:45:11.746Z,6.81
2023-05-04T05:47:38.241Z,6.92
2023-05-04T05:50:05.429Z,6.96
2023-05-04T05:52:32.260Z,7.18
2023-05-04T05:55:00.418Z,7.27
2023-05-04T05:57:29.128Z,7.42
2023-05-04T05:59:55.783Z,7.58
2023-05-04T06:02:22.366Z,7.73
2023-05-04T06:04:49.024Z,7.76
2023-05-04T06:07:15.640Z,7.91
2023-05-04T06:09:44.298Z,8.08
2023-05-04T06:12:11.933Z,8.16
2023-05-04T06:14:39.470Z,8.22
2023-05-04T06:17:06.239Z,8.29
2023-05-04T06:19:37.703Z,8.35
2023-05-04T06:22:04.881Z,8.46
2023-05-04T06:24:31.671Z,8.59
2023-05-04T06:26:58.478Z,8.74
2023-05-04T06:29:26.246Z,8.77
2023-05-04T06:31:54.062Z,8.93
2023-05-04T06:34:20.857Z,9.04
2023-05-04T06:36:47.535Z,9.08
2023-05-04T06:39:14.202Z,9.17
2023-05-04T06:41:40.639Z,9.32
2023-05-04T06:44:07.200Z,9.43
2023-05-04T06:46:36.603Z,9.57
2023-05-04T06:49:04.092Z,9.61
2023-05-04T06:51:31.589Z,9.83
2023-05-04T06:53:58.097Z,9.90
2023-05-04T06:56:24.838Z,9.90
2023-05-04T06:58:53.177Z,9.99
2023-05-04T07:01:19.755Z,10.27
2023-05-04T07:03:46.306Z,10.33
2023-05-04T07:06:12.847Z,10.38
2023-05-04T07:08:42.582Z,10.41
2023-05-04T07:11:10.187Z,10.68
2023-05-04T07:13:36.587Z,10.73
2023-05-04T07:16:07.241Z,10.75
2023-05-04T07:18:33.828Z,10.92
2023-05-04T07:21:15.982Z,11.11
2023-05-04T07:23:46.623Z,11.14
2023-05-04T07:26:13.334Z,11.27
2023-05-04T07:28:40.000Z,11.41
2023-05-04T07:31:06.796Z,11.52
2023-05-04T07:33:33.256Z,11.52
2023-05-04T07:36:01.118Z,11.58
2023-05-04T07:38:27.894Z,11.67
2023-05-04T07:40:55.502Z,11.82
2023-05-04T07:43:22.713Z,11.90
2023-05-04T07:45:49.715Z,12.13
2023-05-04T07:48:17.796Z,12.31
2023-05-04T07:50:44.815Z,12.35
2023-05-04T07:53:11.691Z,12.43
2023-05-04T07:55:39.017Z,12.65
2023-05-04T07:58:05.532Z,12.86
2023-05-04T08:00:33.636Z,12.98
2023-05-04T08:03:00.083Z,13.25
2023-05-04T08:05:26.552Z,13.38
2023-05-04T08:07:53.393Z,13.42
2023-05-04T08:10:20.255Z,13.47
2023-05-04T08:12:47.488Z,13.60
2023-05-04T08:15:15.592Z,13.85
2023-05-04T08:17:42.104Z,13.89
2023-05-04T08:20:09.539Z,14.04
2023-05-04T08:22:36.311Z,14.14
2023-05-04T08:25:03.383Z,14.36
2023-05-04T08:27:30.173Z,14.62
2023-05-04T08:30:00.024Z,14.95
2023-05-04T08:32:26.512Z,15.07
2023-05-04T08:34:53.192Z,15.13
2023-05-04T08:37:21.189Z,15.42
2023-05-04T08:39:55.436Z,15.54
2023-05-04T08:42:29.642Z,15.62
2023-05-04T08:44:57.462Z,15.78
2023-05-04T08:47:28.890Z,16.04
2023-05-04T08:49:56.614Z,16.08
2023-05-04T08:52:24.255Z,16.09
2023-05-04T08:54:55.620Z,16.15
2023-05-04T08:57:25.919Z,16.19
2023-05-04T08:59:54.180Z,16.54
2023-05-04T09:02:21.899Z,16.76
2023-05-04T09:04:52.275Z,16.89
2023-05-04T09:07:20.493Z,16.83
2023-05-04T09:09:47.700Z,17.04
2023-05-04T09:12:19.963Z,17.28
2023-05-04T09:14:46.822Z,17.51
2023-05-04T09:17:19.474Z,17.80
2023-05-04T09:19:45.949Z,17.93
2023-05-04T09:22:19.261Z,17.90
2023-05-04T09:24:47.955Z,18.21
2023-05-04T09:27:15.675Z,18.35
2023-05-04T09:29:42.539Z,18.44
2023-05-04T09:32:12.948Z,18.66
2023-05-04T09:34:50.388Z,18.53
2023-05-04T09:37:17.896Z,18.64
2023-05-04T09:39:58.781Z,18.64
2023-05-04T09:42:26.066Z,18.87
2023-05-04T09:45:04.472Z,18.91
2023-05-04T09:47:32.913Z,18.64
2023-05-04T09:49:59.521Z,19.05
2023-05-04T09:52:31.529Z,19.21
2023-05-04T09:54:59.171Z,19.51
2023-05-04T09:57:25.752Z,19.77
2023-05-04T09:59:52.914Z,19.78
2023-05-04T10:02:23.068Z,19.60
2023-05-04T10:04:57.280Z,19.26
2023-05-04T10:07:24.726Z,19.36
2023-05-04T10:09:51.889Z,19.16
2023-05-04T10:12:18.568Z,19.43
2023-05-04T10:14:45.324Z,19.60
2023-05-04T10:17:44.193Z,19.56
2023-05-04T10:20:38.955Z,19.42
2023-05-04T10:23:24.201Z,19.05
2023-05-04T10:26:08.909Z,18.45
2023-05-04T10:28:50.632Z,19.17
2023-05-04T10:31:17.725Z,19.44
2023-05-04T10:33:44.621Z,19.73
2023-05-04T10:36:11.783Z,20.15
2023-05-04T10:38:40.093Z,19.99
2023-05-04T10:41:17.002Z,20.34
2023-05-04T10:43:44.553Z,20.22
2023-05-04T10:46:18.604Z,20.32
2023-05-04T10:48:45.224Z,20.60
2023-05-04T10:51:28.064Z,20.52
2023-05-04T10:53:59.355Z,20.38
2023-05-04T10:56:28.053Z,20.39
2023-05-04T10:58:55.305Z,20.02
2023-05-04T11:01:22.359Z,20.04
2023-05-04T11:03:49.591Z,20.49
2023-05-04T11:06:17.595Z,20.82
2023-05-04T11:08:46.850Z,20.92
2023-05-04T11:11:13.715Z,21.13
2023-05-04T11:13:45.140Z,21.08
2023-05-04T11:16:13.092Z,20.64
2023-05-04T11:18:39.868Z,20.40
2023-05-04T11:21:06.999Z,21.05
2023-05-04T11:23:33.772Z,21.30
2023-05-04T11:26:10.192Z,21.48
2023-05-04T11:28:37.775Z,21.70
2023-05-04T11:31:15.118Z,21.60
2023-05-04T11:34:00.139Z,21.43
2023-05-04T11:36:26.761Z,21.51
2023-05-04T11:38:56.834Z,21.30
2023-05-04T11:41:26.085Z,21.28
2023-05-04T11:43:54.254Z,20.86
2023-05-04T11:46:21.274Z,21.24
2023-05-04T11:48:48.096Z,21.55
2023-05-04T11:51:15.174Z,21.49
2023-05-04T11:53:41.760Z,21.34
2023-05-04T11:56:10.177Z,21.43
2023-05-04T11:58:36.988Z,21.51
2023-05-04T12:01:04.712Z,21.76
2023-05-04T12:03:48.588Z,21.75
2023-05-04T12:06:30.402Z,21.66
2023-05-04T12:09:03.413Z,21.74
2023-05-04T12:11:29.880Z,21.84
2023-05-04T12:14:12.337Z,21.83
2023-05-04T12:16:39.392Z,21.93
2023-05-04T12:19:07.496Z,21.95
2023-05-04T12:21:35.596Z,22.23
2023-05-04T12:24:03.086Z,22.22
2023-05-04T12:26:30.611Z,21.75
2023-05-04T12:28:57.209Z,21.09
2023-05-04T12:31:25.603Z,21.15
2023-05-04T12:33:53.285Z,21.23
2023-05-04T12:36:19.886Z,21.62
2023-05-04T12:38:46.575Z,21.65
2023-05-04T12:41:14.080Z,21.77
2023-05-04T12:43:40.838Z,21.60
2023-05-04T12:46:07.631Z,21.53
2023-05-04T12:48:34.304Z,21.19
2023-05-04T12:51:01.729Z,21.00
2023-05-04T12:53:29.842Z,21.11
2023-05-04T12:55:56.661Z,21.41
2023-05-04T12:58:23.171Z,21.72
2023-05-04T13:00:49.882Z,21.86
2023-05-04T13:03:17.284Z,22.01
2023-05-04T13:05:45.385Z,21.99
2023-05-04T13:08:11.952Z,22.30
2023-05-04T13:10:38.693Z,22.24
2023-05-04T13:13:05.159Z,22.13
2023-05-04T13:15:31.836Z,22.00
2023-05-04T13:17:58.304Z,22.33
2023-05-04T13:20:25.039Z,22.46
2023-05-04T13:22:51.713Z,22.25
2023-05-04T13:25:19.595Z,22.34
2023-05-04T13:27:46.163Z,21.99
2023-05-04T13:30:13.113Z,21.78
2023-05-04T13:32:39.863Z,21.76
2023-05-04T13:35:07.062Z,21.69
2023-05-04T13:37:33.847Z,21.65
2023-05-04T13:40:00.458Z,21.83
2023-05-04T13:42:27.488Z,22.02
2023-05-04T13:44:53.996Z,21.92
2023-05-04T13:47:20.487Z,21.80
2023-05-04T13:49:46.955Z,21.99
2023-05-04T13:52:13.676Z,21.97
2023-05-04T13:54:40.340Z,22.04
2023-05-04T13:57:06.858Z,22.16
2023-05-04T13:59:33.626Z,22.22
2023-05-04T14:02:00.477Z,21.76
2023-05-04T14:04:27.092Z,21.73
2023-05-04T14:06:54.166Z,21.60
2023-05-04T14:09:20.939Z,21.22
2023-05-04T14:11:47.519Z,21.22
2023-05-04T14:14:14.190Z,21.31
2023-05-04T14:16:40.626Z,21.23
2023-05-04T14:19:07.763Z,21.01
2023-05-04T14:21:35.778Z,21.12
2023-05-04T14:24:02.883Z,21.18
2023-05-04T14:26:29.390Z,21.44
2023-05-04T14:28:55.855Z,21.07
2023-05-04T14:31:22.649Z,20.93
2023-05-04T14:33:49.181Z,21.03
2023-05-04T14:36:15.720Z,21.24
2023-05-04T14:38:42.141Z,21.32
2023-05-04T14:41:08.931Z,21.51
2023-05-04T14:43:35.805Z,21.36
2023-05-04T14:46:02.723Z,21.21
2023-05-04T14:48:29.479Z,21.22
2023-05-04T14:50:56.967Z,20.94
2023-05-04T14:53:23.736Z,20.84
2023-05-04T14:55:50.800Z,20.86
2023-05-04T14:58:18.383Z,20.87
2023-05-04T15:00:45.619Z,21.02
2023-05-04T15:03:12.388Z,21.08
2023-05-04T15:05:39.072Z,20.95
2023-05-04T15:08:05.589Z,20.91
2023-05-04T15:10:32.155Z,20.82
2023-05-04T15:12:58.906Z,20.86
2023-05-04T15:15:25.614Z,20.68
2023-05-04T15:17:52.481Z,20.69
2023-05-04T15:20:19.442Z,20.86
2023-05-04T15:22:46.306Z,20.66
2023-05-04T15:25:12.947Z,20.74
2023-05-04T15:27:39.332Z,20.79
2023-05-04T15:30:07.133Z,20.97
2023-05-04T15:32:34.022Z,21.06
2023-05-04T15:35:05.382Z,21.21
2023-05-04T15:37:33.606Z,21.25
2023-05-04T15:40:02.276Z,21.27
2023-05-04T15:42:29.259Z,21.08
2023-05-04T15:44:55.817Z,20.99
2023-05-04T15:47:22.573Z,20.73
2023-05-04T15:49:49.150Z,20.55
2023-05-04T15:52:15.784Z,20.63
2023-05-04T15:54:44.699Z,20.66
2023-05-04T15:57:11.417Z,20.59
2023-05-04T15:59:37.819Z,20.59
2023-05-04T16:02:04.202Z,20.56
2023-05-04T16:04:32.058Z,20.40
2023-05-04T16:06:58.563Z,20.37
2023-05-04T16:09:25.321Z,20.34
2023-05-04T16:11:51.928Z,20.11
2023-05-04T16:14:18.532Z,19.99
2023-05-04T16:16:45.403Z,20.03
2023-05-04T16:19:12.063Z,19.98
2023-05-04T16:21:38.894Z,19.82
2023-05-04T16:24:06.143Z,19.79
2023-05-04T16:26:32.545Z,19.71
2023-05-04T16:29:01.280Z,19.80
2023-05-04T16:31:30.414Z,19.78
2023-05-04T16:33:56.908Z,19.63
2023-05-04T16:36:23.352Z,19.55
2023-05-04T16:38:50.170Z,19.48
2023-05-04T16:41:18.241Z,19.48
2023-05-04T16:43:44.978Z,19.38
2023-05-04T16:46:11.330Z,19.32
2023-05-04T16:48:38.083Z,19.43
2023-05-04T16:51:05.479Z,19.42
2023-05-04T16:53:32.240Z,19.30
2023-05-04T16:55:58.611Z,19.27
2023-05-04T16:58:25.117Z,19.24
2023-05-04T17:00:51.773Z,19.28
2023-05-04T17:03:18.589Z,19.19
2023-05-04T17:05:45.338Z,19.21
2023-05-04T17:08:11.928Z,19.17
2023-05-04T17:10:39.713Z,19.05
2023-05-04T17:13:06.705Z,18.91
2023-05-04T17:15:33.606Z,18.86
2023-05-04T17:18:00.781Z,18.73
2023-05-04T17:20:27.333Z,18.60
2023-05-04T17:22:53.836Z,18.55
2023-05-04T17:25:20.649Z,18.43
2023-05-04T17:27:47.242Z,18.32
2023-05-04T17:30:17.438Z,18.18
2023-05-04T17:32:45.076Z,18.21
2023-05-04T17:35:24.474Z,18.05
2023-05-04T17:37:54.520Z,17.99
2023-05-04T17:40:24.207Z,17.86
2023-05-04T17:42:50.928Z,17.90
2023-05-04T17:45:17.464Z,17.75
2023-05-04T17:47:43.910Z,17.50
2023-05-04T17:50:10.608Z,17.44
2023-05-04T17:52:37.113Z,17.40
2023-05-04T17:55:05.141Z,17.35
2023-05-04T17:57:31.639Z,17.25
2023-05-04T17:59:58.200Z,17.19
2023-05-04T18:02:24.979Z,17.15
2023-05-04T18:04:51.660Z,17.03
2023-05-04T18:07:18.353Z,16.94
2023-05-04T18:09:44.831Z,16.94
2023-05-04T18:12:11.526Z,16.89
2023-05-04T18:14:38.940Z,16.66
2023-05-04T18:17:05.668Z,16.59
2023-05-04T18:19:32.136Z,16.57
2023-05-04T18:21:58.903Z,16.39
2023-05-04T18:24:25.242Z,16.29
2023-05-04T18:26:56.745Z,16.26
2023-05-04T18:29:23.162Z,16.14
2023-05-04T18:31:49.697Z,16.11
2023-05-04T18:34:16.271Z,16.04
2023-05-04T18:36:42.722Z,16.01
2023-05-04T18:39:09.312Z,15.99
2023-05-04T18:41:35.852Z,15.89
2023-05-04T18:44:02.273Z,15.81
2023-05-04T18:46:28.719Z,15.73
2023-05-04T18:48:55.148Z,15.68
2023-05-04T18:51:21.631Z,15.66
2023-05-04T18:53:48.553Z,15.59
2023-05-04T18:56:15.311Z,15.47
2023-05-04T18:58:41.831Z,15.34
2023-05-04T19:01:08.333Z,15.31
2023-05-04T19:03:35.139Z,15.29
2023-05-04T19:06:01.681Z,15.21
2023-05-04T19:08:28.730Z,15.14
2023-05-04T19:10:57.962Z,15.12
2023-05-04T19:13:24.446Z,15.08
2023-05-04T19:15:51.140Z,15.00
2023-05-04T19:18:17.861Z,14.90
2023-05-04T19:20:44.721Z,14.90
2023-05-04T19:23:11.193Z,14.93
2023-05-04T19:25:37.886Z,14.85
2023-05-04T19:28:04.809Z,14.82
2023-05-04T19:30:31.360Z,14.77
2023-05-04T19:32:59.476Z,14.74
2023-05-04T19:35:26.245Z,14.69
2023-05-04T19:37:52.995Z,14.58
2023-05-04T19:40:19.707Z,14.63
2023-05-04T19:42:46.341Z,14.63
2023-05-04T19:45:13.976Z,14.54
2023-05-04T19:47:41.407Z,14.53
2023-05-04T19:50:11.541Z,14.53
2023-05-04T19:52:38.276Z,14.44
2023-05-04T19:55:06.374Z,14.43
2023-05-04T19:57:32.976Z,14.43
2023-05-04T19:59:59.700Z,14.38
2023-05-04T20:02:26.744Z,14.34
2023-05-04T20:04:53.247Z,14.30
2023-05-04T20:07:20.030Z,14.21
2023-05-04T20:09:46.450Z,14.19
2023-05-04T20:12:13.063Z,14.17
2023-05-04T20:14:39.512Z,14.18
2023-05-04T20:17:05.911Z,14.06
2023-05-04T20:19:32.837Z,14.00
2023-05-04T20:21:59.204Z,13.91
2023-05-04T20:24:25.889Z,13.96
2023-05-04T20:26:52.394Z,13.80
2023-05-04T20:29:18.833Z,13.82
2023-05-04T20:31:45.787Z,13.78
2023-05-04T20:34:12.176Z,13.73
2023-05-04T20:36:38.693Z,13.67
2023-05-04T20:39:05.534Z,13.63
2023-05-04T20:41:32.865Z,13.52
2023-05-04T20:43:59.620Z,13.47
2023-05-04T20:46:26.420Z,13.41
2023-05-04T20:48:52.959Z,13.36
2023-05-04T20:51:19.840Z,13.34
2023-05-04T20:53:46.732Z,13.34
2023-05-04T20:56:13.110Z,13.17
2023-05-04T20:58:39.919Z,13.10
2023-05-04T21:01:07.204Z,13.08
2023-05-04T21:03:34.105Z,13.04
2023-05-04T21:06:01.557Z,12.99
2023-05-04T21:08:27.989Z,12.96
2023-05-04T21:10:54.525Z,12.87
2023-05-04T21:13:21.320Z,12.85
2023-05-04T21:15:48.142Z,12.84
2023-05-04T21:18:14.632Z,12.72
2023-05-04T21:20:41.149Z,12.71
2023-05-04T21:23:07.577Z,12.66
2023-05-04T21:25:34.492Z,12.61
2023-05-04T21:28:00.888Z,12.54
2023-05-04T21:30:27.418Z,12.49
2023-05-04T21:32:54.159Z,12.42
2023-05-04T21:35:21.132Z,12.36
2023-05-04T21:37:48.318Z,12.35
2023-05-04T21:40:15.050Z,12.28
2023-05-04T21:42:41.528Z,12.22
2023-05-04T21:45:08.528Z,12.20
2023-05-04T21:47:38.234Z,12.15
2023-05-04T21:50:06.389Z,12.05
2023-05-04T21:52:33.432Z,12.02
2023-05-04T21:55:00.480Z,11.94
2023-05-04T21:57:28.087Z,11.84
2023-05-04T21:59:55.013Z,11.70
2023-05-04T22:02:21.721Z,11.65
2023-05-04T22:04:48.596Z,11.59
2023-05-04T22:07:15.237Z,11.45
2023-05-04T22:09:41.836Z,11.40
2023-05-04T22:12:08.448Z,11.33
2023-05-04T22:14:35.163Z,11.26
2023-05-04T22:17:01.945Z,11.20
2023-05-04T22:19:28.723Z,11.09
2023-05-04T22:21:56.310Z,11.00
2023-05-04T22:24:23.024Z,10.97
2023-05-04T22:26:49.884Z,10.91
2023-05-04T22:29:16.370Z,10.90
2023-05-04T22:31:43.137Z,10.88
2023-05-04T22:34:09.645Z,10.85
2023-05-04T22:36:36.335Z,10.83
2023-05-04T22:39:03.078Z,10.71
2023-05-04T22:41:29.894Z,10.66
2023-05-04T22:43:56.341Z,10.64
2023-05-04T22:46:23.130Z,10.55
2023-05-04T22:48:49.574Z,10.46
2023-05-04T22:51:16.380Z,10.42
2023-05-04T22:53:42.988Z,10.38
2023-05-04T22:56:11.156Z,10.35
2023-05-04T22:58:38.406Z,10.33
2023-05-04T23:01:09.245Z,10.30
2023-05-04T23:03:36.066Z,10.31
2023-05-04T23:06:02.645Z,10.30
2023-05-04T23:08:29.135Z,10.21
2023-05-04T23:10:56.744Z,10.12
2023-05-04T23:13:23.237Z,10.07
2023-05-04T23:15:50.087Z,10.04
2023-05-04T23:18:16.601Z,10.06
2023-05-04T23:20:43.187Z,9.97
2023-05-04T23:23:10.110Z,9.97
2023-05-04T23:25:36.593Z,9.94
2023-05-04T23:28:03.196Z,9.94
2023-05-04T23:30:30.039Z,9.82
2023-05-04T23:32:56.810Z,9.81
2023-05-04T23:35:23.367Z,9.77
2023-05-04T23:37:50.134Z,9.73
2023-05-04T23:40:16.839Z,9.67
2023-05-04T23:42:43.669Z,9.66
2023-05-04T23:45:10.820Z,9.67
2023-05-04T23:47:37.477Z,9.59
2023-05-04T23:50:04.225Z,9.61
2023-05-04T23:52:30.783Z,9.57
2023-05-04T23:54:57.240Z,9.50
2023-05-04T23:57:24.013Z,9.47
2023-05-04T23:59:52.848Z,9.46
